createdAt,value
2019-04-30T00:00:59.052Z,68.35
2019-04-30T00:03:29.815Z,68.34
2019-04-30T00:06:12.978Z,68.37
2019-04-30T00:08:51.997Z,68.47
2019-04-30T00:11:21.179Z,68.47
2019-04-30T00:13:54.386Z,68.47
2019-04-30T00:16:21.143Z,68.44
2019-04-30T00:18:59.848Z,68.51
2019-04-30T00:21:21.131Z,68.48
2019-04-30T00:23:50.248Z,68.38
2019-04-30T00:26:19.378Z,68.56
2019-04-30T00:28:48.490Z,68.50
2019-04-30T00:31:23.867Z,68.51
2019-04-30T00:33:48.474Z,68.58
2019-04-30T00:36:17.651Z,68.61
2019-04-30T00:38:46.763Z,68.59
2019-04-30T00:41:15.893Z,68.51
2019-04-30T00:43:49.308Z,68.56
2019-04-30T00:46:17.366Z,68.53
2019-04-30T00:48:46.704Z,68.55
2019-04-30T00:51:21.039Z,68.60
2019-04-30T00:53:51.095Z,68.65
2019-04-30T00:56:19.850Z,68.54
2019-04-30T00:58:48.347Z,68.50
2019-04-30T01:01:25.295Z,68.45
2019-04-30T01:03:56.230Z,68.46
2019-04-30T01:06:28.610Z,68.40
2019-04-30T01:08:58.357Z,68.41
2019-04-30T01:11:27.043Z,68.51
2019-04-30T01:13:56.155Z,68.58
2019-04-30T01:16:30.234Z,68.51
2019-04-30T01:18:56.129Z,68.48
2019-04-30T01:21:25.246Z,68.43
2019-04-30T01:23:54.860Z,68.39
2019-04-30T01:26:27.734Z,68.46
2019-04-30T01:29:00.567Z,68.43
2019-04-30T01:31:25.837Z,68.39
2019-04-30T01:33:54.951Z,68.47
2019-04-30T01:36:24.071Z,68.39
2019-04-30T01:38:53.218Z,68.39
2019-04-30T01:41:27.467Z,68.40
2019-04-30T01:43:53.194Z,68.37
2019-04-30T01:47:01.908Z,68.43
2019-04-30T01:49:44.661Z,68.52
2019-04-30T01:52:10.123Z,68.47
2019-04-30T01:54:39.261Z,68.33
2019-04-30T01:57:32.706Z,68.44
2019-04-30T02:00:19.625Z,68.48
2019-04-30T02:02:49.709Z,68.49
2019-04-30T02:05:19.106Z,68.34
2019-04-30T02:07:48.718Z,68.43
2019-04-30T02:10:18.614Z,68.44
2019-04-30T02:12:49.385Z,68.51
2019-04-30T02:15:19.243Z,68.51
2019-04-30T02:17:52.742Z,68.59
2019-04-30T02:20:29.799Z,68.54
2019-04-30T02:22:58.910Z,68.57
2019-04-30T02:25:29.595Z,68.52
2019-04-30T02:27:59.268Z,68.57
2019-04-30T02:30:30.880Z,68.58
2019-04-30T02:33:00.500Z,68.62
2019-04-30T02:35:31.550Z,68.63
2019-04-30T02:38:20.129Z,68.61
2019-04-30T02:40:50.038Z,68.67
2019-04-30T02:43:20.376Z,68.61
2019-04-30T02:45:51.279Z,68.71
2019-04-30T02:48:21.947Z,68.83
2019-04-30T02:50:52.228Z,68.85
2019-04-30T02:53:50.836Z,68.92
2019-04-30T02:56:26.318Z,69.01
2019-04-30T02:58:53.385Z,68.95
2019-04-30T03:01:22.815Z,69.03
2019-04-30T03:03:51.902Z,68.96
2019-04-30T03:06:23.760Z,68.97
2019-04-30T03:08:52.138Z,68.98
2019-04-30T03:11:21.250Z,68.99
2019-04-30T03:13:50.448Z,68.95
2019-04-30T03:16:21.207Z,68.94
2019-04-30T03:18:54.380Z,68.92
2019-04-30T03:21:43.243Z,68.91
2019-04-30T03:24:12.359Z,68.90
2019-04-30T03:26:41.470Z,68.81
2019-04-30T03:29:11.630Z,68.96
2019-04-30T03:31:43.922Z,69.07
2019-04-30T03:34:18.277Z,69.09
2019-04-30T03:36:42.684Z,69.11
2019-04-30T03:39:11.820Z,69.17
2019-04-30T03:41:41.717Z,69.15
2019-04-30T03:44:21.688Z,69.23
2019-04-30T03:46:41.999Z,69.21
2019-04-30T03:49:22.803Z,69.17
2019-04-30T03:51:56.170Z,69.28
2019-04-30T03:54:36.636Z,69.18
2019-04-30T03:57:13.084Z,69.09
2019-04-30T03:59:54.057Z,69.13
2019-04-30T04:02:31.951Z,69.14
2019-04-30T04:05:03.455Z,69.12
2019-04-30T04:07:56.709Z,69.14
2019-04-30T04:10:32.093Z,69.23
2019-04-30T04:13:01.221Z,69.15
2019-04-30T04:15:33.606Z,69.22
2019-04-30T04:18:10.696Z,69.28
2019-04-30T04:20:42.773Z,69.28
2019-04-30T04:23:10.739Z,69.24
2019-04-30T04:25:40.096Z,69.27
2019-04-30T04:28:10.059Z,69.25
2019-04-30T04:30:42.835Z,69.25
2019-04-30T04:33:10.463Z,69.29
2019-04-30T04:35:39.774Z,69.24
2019-04-30T04:38:12.285Z,69.14
2019-04-30T04:40:40.147Z,69.13
2019-04-30T04:43:10.405Z,69.15
2019-04-30T04:45:52.352Z,69.24
2019-04-30T04:48:23.188Z,69.27
2019-04-30T04:50:59.889Z,69.23
2019-04-30T04:53:40.187Z,69.35
2019-04-30T04:56:10.058Z,69.38
2019-04-30T04:58:40.210Z,69.39
2019-04-30T05:01:11.899Z,69.32
2019-04-30T05:03:40.328Z,69.37
2019-04-30T05:06:11.816Z,69.44
2019-04-30T05:08:42.555Z,69.44
2019-04-30T05:11:16.951Z,69.40
2019-04-30T05:13:46.059Z,69.30
2019-04-30T05:16:15.640Z,69.27
2019-04-30T05:18:44.800Z,69.21
2019-04-30T05:21:19.202Z,69.20
2019-04-30T05:23:55.775Z,69.26
2019-04-30T05:26:48.591Z,69.28
2019-04-30T05:29:34.958Z,69.32
2019-04-30T05:33:14.147Z,69.22
2019-04-30T05:34:45.992Z,69.41
2019-04-30T05:37:49.377Z,69.45
2019-04-30T05:40:18.818Z,69.49
2019-04-30T05:42:49.604Z,69.50
2019-04-30T05:45:19.345Z,69.82
2019-04-30T05:47:50.478Z,69.77
2019-04-30T05:50:20.067Z,69.70
2019-04-30T05:52:49.270Z,69.65
2019-04-30T05:55:19.779Z,69.60
2019-04-30T05:57:55.930Z,69.49
2019-04-30T06:00:20.563Z,69.52
2019-04-30T06:02:49.684Z,69.49
2019-04-30T06:05:19.048Z,69.42
2019-04-30T06:07:49.549Z,69.43
2019-04-30T06:10:39.536Z,69.45
2019-04-30T06:13:23.028Z,69.54
2019-04-30T06:16:02.891Z,69.61
2019-04-30T06:18:31.303Z,69.50
2019-04-30T06:21:00.411Z,69.31
2019-04-30T06:23:46.071Z,69.34
2019-04-30T06:26:30.029Z,69.42
2019-04-30T06:29:11.896Z,69.36
2019-04-30T06:31:40.402Z,69.42
2019-04-30T06:34:09.823Z,69.45
2019-04-30T06:36:50.908Z,69.56
2019-04-30T06:39:12.076Z,69.66
2019-04-30T06:42:04.962Z,69.61
2019-04-30T06:44:37.410Z,69.59
2019-04-30T06:47:09.105Z,69.68
2019-04-30T06:49:43.326Z,69.73
2019-04-30T06:52:20.811Z,69.76
2019-04-30T06:54:49.813Z,69.77
2019-04-30T06:57:33.657Z,69.64
2019-04-30T07:00:03.175Z,69.59
2019-04-30T07:02:49.287Z,69.56
2019-04-30T07:05:18.204Z,69.52
2019-04-30T07:08:09.828Z,69.50
2019-04-30T07:10:41.447Z,69.56
2019-04-30T07:13:22.873Z,69.42
2019-04-30T07:15:58.537Z,69.55
2019-04-30T07:18:28.882Z,69.46
2019-04-30T07:21:02.435Z,69.46
2019-04-30T07:23:31.584Z,69.47
2019-04-30T07:26:13.752Z,69.51
2019-04-30T07:28:54.639Z,69.36
2019-04-30T07:31:29.606Z,69.37
2019-04-30T07:34:09.376Z,69.44
2019-04-30T07:36:49.122Z,69.50
2019-04-30T07:39:31.677Z,69.55
2019-04-30T07:44:55.348Z,69.61
2019-04-30T07:47:29.700Z,69.57
2019-04-30T07:50:04.105Z,69.56
2019-04-30T07:52:55.409Z,69.45
2019-04-30T07:55:09.856Z,69.46
2019-04-30T07:57:45.161Z,69.48
2019-04-30T08:00:24.183Z,69.58
2019-04-30T08:03:00.951Z,69.50
2019-04-30T08:05:49.794Z,69.63
2019-04-30T08:08:24.992Z,69.44
2019-04-30T08:10:56.837Z,69.46
2019-04-30T08:13:32.663Z,69.59
2019-04-30T08:16:01.181Z,69.54
2019-04-30T08:18:42.071Z,69.58
2019-04-30T08:21:11.174Z,69.59
2019-04-30T08:23:40.295Z,69.54
2019-04-30T08:26:13.458Z,69.58
2019-04-30T08:28:50.117Z,69.69
2019-04-30T08:31:33.804Z,69.71
2019-04-30T08:34:03.110Z,69.74
2019-04-30T08:39:21.713Z,69.81
2019-04-30T08:42:04.991Z,69.84
2019-04-30T08:44:35.637Z,69.77
2019-04-30T08:47:05.066Z,69.69
2019-04-30T08:49:37.357Z,69.70
2019-04-30T08:52:11.610Z,69.66
2019-04-30T08:54:49.647Z,69.65
2019-04-30T08:57:22.326Z,69.54
2019-04-30T08:59:53.500Z,69.60
2019-04-30T09:02:49.030Z,69.70
2019-04-30T09:05:38.519Z,69.61
2019-04-30T09:08:23.002Z,69.61
2019-04-30T09:10:53.996Z,69.51
2019-04-30T09:13:49.776Z,69.61
2019-04-30T09:16:19.441Z,69.55
2019-04-30T09:18:49.482Z,69.54
2019-04-30T09:21:23.417Z,69.62
2019-04-30T09:23:52.925Z,69.66
2019-04-30T09:29:06.251Z,69.54
2019-04-30T09:31:45.199Z,69.47
2019-04-30T09:34:20.875Z,69.51
2019-04-30T09:36:50.450Z,69.49
2019-04-30T09:39:20.654Z,69.44
2019-04-30T09:41:50.411Z,69.43
2019-04-30T09:44:25.850Z,69.46
2019-04-30T09:46:58.840Z,69.43
2019-04-30T09:50:00.620Z,69.45
2019-04-30T09:52:31.663Z,69.39
2019-04-30T09:55:01.607Z,69.35
2019-04-30T09:57:49.671Z,69.40
2019-04-30T10:00:19.466Z,69.41
2019-04-30T10:02:48.867Z,69.39
2019-04-30T10:05:40.430Z,69.36
2019-04-30T10:08:21.125Z,69.20
2019-04-30T10:10:52.119Z,69.23
2019-04-30T10:13:30.028Z,69.30
2019-04-30T10:16:14.721Z,69.34
2019-04-30T10:18:49.488Z,69.28
2019-04-30T10:21:38.921Z,69.31
2019-04-30T10:24:15.482Z,69.29
2019-04-30T10:29:41.216Z,69.29
2019-04-30T10:32:10.382Z,69.32
2019-04-30T10:34:39.909Z,69.35
2019-04-30T10:37:20.542Z,69.55
2019-04-30T10:39:49.176Z,69.46
2019-04-30T10:42:18.709Z,69.42
2019-04-30T10:44:48.815Z,69.30
2019-04-30T10:47:29.601Z,69.29
2019-04-30T10:50:06.104Z,69.25
2019-04-30T10:52:39.348Z,69.25
2019-04-30T10:55:15.241Z,69.37
2019-04-30T10:57:46.219Z,69.28
2019-04-30T11:00:24.717Z,69.07
2019-04-30T11:03:20.038Z,68.99
2019-04-30T11:05:49.962Z,68.80
2019-04-30T11:08:26.624Z,68.77
2019-04-30T11:10:56.110Z,68.79
2019-04-30T11:13:25.225Z,68.77
2019-04-30T11:16:02.632Z,68.74
2019-04-30T11:18:29.619Z,68.63
2019-04-30T11:20:59.957Z,68.62
2019-04-30T11:23:31.584Z,68.58
2019-04-30T11:26:09.852Z,68.56
2019-04-30T11:28:39.818Z,68.57
2019-04-30T11:31:23.587Z,68.52
2019-04-30T11:33:54.745Z,68.46
2019-04-30T11:36:25.388Z,68.16
2019-04-30T11:38:58.969Z,67.54
2019-04-30T11:41:32.910Z,67.54
2019-04-30T11:44:28.568Z,67.53
2019-04-30T11:47:06.308Z,67.79
2019-04-30T11:49:35.939Z,67.90
2019-04-30T11:52:06.789Z,67.91
2019-04-30T11:54:48.675Z,67.53
2019-04-30T11:57:09.696Z,66.84
2019-04-30T11:59:43.515Z,66.34
2019-04-30T12:02:25.112Z,66.82
2019-04-30T12:05:05.164Z,66.90
2019-04-30T12:07:50.716Z,67.26
2019-04-30T12:10:29.283Z,67.45
2019-04-30T12:15:53.312Z,66.40
2019-04-30T12:18:25.670Z,66.59
2019-04-30T12:21:01.922Z,66.70
2019-04-30T12:23:32.954Z,66.79
2019-04-30T12:26:04.138Z,65.98
2019-04-30T12:28:36.154Z,65.72
2019-04-30T12:31:24.206Z,65.53
2019-04-30T12:33:50.239Z,65.20
2019-04-30T12:36:19.511Z,65.97
2019-04-30T12:38:52.483Z,64.98
2019-04-30T12:41:27.949Z,65.18
2019-04-30T12:44:02.129Z,65.39
2019-04-30T12:46:33.308Z,65.67
2019-04-30T12:49:07.326Z,65.67
2019-04-30T12:51:58.639Z,65.66
2019-04-30T12:54:51.828Z,66.03
2019-04-30T12:57:30.079Z,64.39
2019-04-30T13:00:09.464Z,65.04
2019-04-30T13:02:37.881Z,65.49
2019-04-30T13:05:10.526Z,65.87
2019-04-30T13:07:52.709Z,66.00
2019-04-30T13:10:28.977Z,66.02
2019-04-30T13:13:01.189Z,65.92
2019-04-30T13:15:35.872Z,64.86
2019-04-30T13:18:11.789Z,64.10
2019-04-30T13:20:44.386Z,63.81
2019-04-30T13:23:27.203Z,63.19
2019-04-30T13:26:01.035Z,63.92
2019-04-30T13:28:31.898Z,64.17
2019-04-30T13:31:09.345Z,63.11
2019-04-30T13:33:40.464Z,63.11
2019-04-30T13:36:25.803Z,63.43
2019-04-30T13:39:05.851Z,63.28
2019-04-30T13:41:44.517Z,63.26
2019-04-30T13:44:24.691Z,62.17
2019-04-30T13:46:49.250Z,62.57
2019-04-30T13:49:30.032Z,63.17
2019-04-30T13:51:56.761Z,63.79
2019-04-30T13:54:33.543Z,63.66
2019-04-30T13:57:01.865Z,62.67
2019-04-30T13:59:31.198Z,63.11
2019-04-30T14:02:00.769Z,62.83
2019-04-30T14:04:43.707Z,62.42
2019-04-30T14:07:19.867Z,62.07
2019-04-30T14:09:54.433Z,62.51
2019-04-30T14:12:43.721Z,62.79
2019-04-30T14:15:10.297Z,61.79
2019-04-30T14:17:40.172Z,62.54
2019-04-30T14:20:13.303Z,61.99
2019-04-30T14:22:44.576Z,61.42
2019-04-30T14:25:22.560Z,61.62
2019-04-30T14:27:54.548Z,61.69
2019-04-30T14:30:22.618Z,61.25
2019-04-30T14:33:01.625Z,61.31
2019-04-30T14:35:40.309Z,61.73
2019-04-30T14:38:09.743Z,61.42
2019-04-30T14:41:01.650Z,61.53
2019-04-30T14:43:30.534Z,61.49
2019-04-30T14:46:23.228Z,61.87
2019-04-30T14:49:10.448Z,61.82
2019-04-30T14:51:51.490Z,61.65
2019-04-30T14:54:22.316Z,62.38
2019-04-30T14:56:53.271Z,63.01
2019-04-30T14:59:28.969Z,63.25
2019-04-30T15:02:05.955Z,63.26
2019-04-30T15:04:39.269Z,62.85
2019-04-30T15:07:14.842Z,62.54
2019-04-30T15:09:50.442Z,62.05
2019-04-30T15:12:24.768Z,61.75
2019-04-30T15:14:56.031Z,61.68
2019-04-30T15:17:29.737Z,61.83
2019-04-30T15:20:01.679Z,61.47
2019-04-30T15:25:34.102Z,61.79
2019-04-30T15:28:03.935Z,61.83
2019-04-30T15:30:38.765Z,61.60
2019-04-30T15:33:26.020Z,61.26
2019-04-30T15:36:09.596Z,61.36
2019-04-30T15:38:54.921Z,61.34
2019-04-30T15:41:33.366Z,61.97
2019-04-30T15:44:06.243Z,61.97
2019-04-30T15:46:40.876Z,62.21
2019-04-30T15:49:10.386Z,62.18
2019-04-30T15:51:40.472Z,62.22
2019-04-30T15:54:11.358Z,61.98
2019-04-30T15:56:51.605Z,61.98
2019-04-30T15:59:28.962Z,61.88
2019-04-30T16:02:28.721Z,62.18
2019-04-30T16:05:14.399Z,62.72
2019-04-30T16:07:49.242Z,62.52
2019-04-30T16:10:39.725Z,62.33
2019-04-30T16:13:22.136Z,62.16
2019-04-30T16:15:55.399Z,61.80
2019-04-30T16:18:38.519Z,61.44
2019-04-30T16:21:09.270Z,61.56
2019-04-30T16:23:46.284Z,61.27
2019-04-30T16:26:20.426Z,61.48
2019-04-30T16:28:58.602Z,61.29
2019-04-30T16:31:31.659Z,61.17
2019-04-30T16:34:20.836Z,61.35
2019-04-30T16:36:41.480Z,61.64
2019-04-30T16:39:10.587Z,61.66
2019-04-30T16:41:44.802Z,61.40
2019-04-30T16:44:26.381Z,61.41
2019-04-30T16:46:59.785Z,61.21
2019-04-30T16:49:32.097Z,61.13
2019-04-30T16:52:06.017Z,60.99
2019-04-30T16:54:43.141Z,61.20
2019-04-30T16:57:19.817Z,61.15
2019-04-30T16:59:54.429Z,61.12
2019-04-30T17:02:29.259Z,60.94
2019-04-30T17:05:11.687Z,60.89
2019-04-30T17:07:53.695Z,61.15
2019-04-30T17:10:50.808Z,61.31
2019-04-30T17:13:31.821Z,61.26
2019-04-30T17:16:06.612Z,61.38
2019-04-30T17:18:35.828Z,61.57
2019-04-30T17:21:09.844Z,61.79
2019-04-30T17:23:42.628Z,61.97
2019-04-30T17:26:16.358Z,62.31
2019-04-30T17:28:50.006Z,62.29
2019-04-30T17:31:23.210Z,62.42
2019-04-30T17:33:56.159Z,62.46
2019-04-30T17:36:30.687Z,62.47
2019-04-30T17:39:00.575Z,62.50
2019-04-30T17:41:30.444Z,62.47
2019-04-30T17:44:02.945Z,62.50
2019-04-30T17:46:32.212Z,62.89
2019-04-30T17:49:02.241Z,62.70
2019-04-30T17:51:33.937Z,62.65
2019-04-30T17:54:18.883Z,62.64
2019-04-30T17:56:48.211Z,62.69
2019-04-30T17:59:17.450Z,62.73
2019-04-30T18:01:51.420Z,62.79
2019-04-30T18:04:22.198Z,62.92
2019-04-30T18:06:53.632Z,62.97
2019-04-30T18:09:24.213Z,63.00
2019-04-30T18:11:53.555Z,63.03
2019-04-30T18:14:25.251Z,62.97
2019-04-30T18:17:03.494Z,63.00
2019-04-30T18:19:38.887Z,63.07
2019-04-30T18:22:19.461Z,63.09
2019-04-30T18:25:14.227Z,63.17
2019-04-30T18:28:02.726Z,63.18
2019-04-30T18:30:34.031Z,63.18
2019-04-30T18:33:04.700Z,63.15
2019-04-30T18:35:38.682Z,63.24
2019-04-30T18:41:05.065Z,63.35
2019-04-30T18:43:48.584Z,63.46
2019-04-30T18:46:19.169Z,63.50
2019-04-30T18:49:10.351Z,63.51
2019-04-30T18:51:42.096Z,63.47
2019-04-30T18:54:08.404Z,63.63
2019-04-30T18:56:38.958Z,63.54
2019-04-30T18:59:19.630Z,63.69
2019-04-30T19:01:53.506Z,63.80
2019-04-30T19:04:29.803Z,63.85
2019-04-30T19:07:01.406Z,63.95
2019-04-30T19:09:37.199Z,64.02
2019-04-30T19:12:14.748Z,64.01
2019-04-30T19:14:54.593Z,64.03
2019-04-30T19:17:44.699Z,64.09
2019-04-30T19:20:20.952Z,64.07
2019-04-30T19:22:50.078Z,64.10
2019-04-30T19:25:19.227Z,64.14
2019-04-30T19:27:48.342Z,64.07
2019-04-30T19:30:19.251Z,64.04
2019-04-30T19:32:49.128Z,64.01
2019-04-30T19:35:18.776Z,63.92
2019-04-30T19:37:48.715Z,63.97
2019-04-30T19:40:22.855Z,63.88
2019-04-30T19:42:57.110Z,63.91
2019-04-30T19:45:26.294Z,63.93
2019-04-30T19:48:03.609Z,64.00
2019-04-30T19:50:32.685Z,64.03
2019-04-30T19:53:09.295Z,64.10
2019-04-30T19:55:39.376Z,64.10
2019-04-30T19:58:10.640Z,64.11
2019-04-30T20:00:42.931Z,64.16
2019-04-30T20:03:17.094Z,64.11
2019-04-30T20:06:01.068Z,64.23
2019-04-30T20:08:30.722Z,64.24
2019-04-30T20:11:21.397Z,64.17
2019-04-30T20:13:44.027Z,64.19
2019-04-30T20:16:16.619Z,64.19
2019-04-30T20:19:09.210Z,64.26
2019-04-30T20:21:48.213Z,64.29
2019-04-30T20:24:21.168Z,64.30
2019-04-30T20:27:07.040Z,64.27
2019-04-30T20:29:37.675Z,64.37
2019-04-30T20:32:10.190Z,64.37
2019-04-30T20:34:42.062Z,64.41
2019-04-30T20:37:10.820Z,64.46
2019-04-30T20:39:41.578Z,64.47
2019-04-30T20:42:14.182Z,64.49
2019-04-30T20:44:43.336Z,64.59
2019-04-30T20:47:30.012Z,64.65
2019-04-30T20:49:59.194Z,64.60
2019-04-30T20:52:29.037Z,64.64
2019-04-30T20:55:03.566Z,64.59
2019-04-30T21:00:39.058Z,64.59
2019-04-30T21:03:19.589Z,64.66
2019-04-30T21:06:00.382Z,64.78
2019-04-30T21:08:29.191Z,64.90
2019-04-30T21:13:59.090Z,65.02
2019-04-30T21:16:29.162Z,65.00
2019-04-30T21:19:03.785Z,65.00
2019-04-30T21:21:33.986Z,64.99
2019-04-30T21:24:06.630Z,64.94
2019-04-30T21:26:37.630Z,64.99
2019-04-30T21:29:13.173Z,65.06
2019-04-30T21:31:53.604Z,64.95
2019-04-30T21:34:40.470Z,64.98
2019-04-30T21:37:15.926Z,64.88
2019-04-30T21:39:58.612Z,64.99
2019-04-30T21:42:33.071Z,64.95
2019-04-30T21:45:10.298Z,64.97
2019-04-30T21:47:41.066Z,65.04
2019-04-30T21:50:11.815Z,65.07
2019-04-30T21:52:54.034Z,65.13
2019-04-30T21:55:26.481Z,65.17
2019-04-30T21:58:13.413Z,65.16
2019-04-30T22:00:49.421Z,65.24
2019-04-30T22:03:26.674Z,65.20
2019-04-30T22:06:16.326Z,65.24
2019-04-30T22:08:55.014Z,65.36
2019-04-30T22:11:46.716Z,65.33
2019-04-30T22:14:21.303Z,65.37
2019-04-30T22:16:50.398Z,65.46
2019-04-30T22:19:19.510Z,65.44
2019-04-30T22:21:49.613Z,65.62
2019-04-30T22:24:18.738Z,65.67
2019-04-30T22:26:47.851Z,65.60
2019-04-30T22:29:19.024Z,65.67
2019-04-30T22:31:49.462Z,65.71
2019-04-30T22:34:18.623Z,65.60
2019-04-30T22:36:48.861Z,65.51
2019-04-30T22:39:20.071Z,65.49
2019-04-30T22:41:49.217Z,65.44
2019-04-30T22:44:18.358Z,65.47
2019-04-30T22:46:49.241Z,65.52
2019-04-30T22:49:18.465Z,65.55
2019-04-30T22:51:47.601Z,65.56
2019-04-30T22:54:16.713Z,65.62
2019-04-30T22:56:45.828Z,65.73
2019-04-30T22:59:14.960Z,65.69
2019-04-30T23:01:45.720Z,65.72
2019-04-30T23:04:28.398Z,65.73
2019-04-30T23:06:57.514Z,65.78
2019-04-30T23:09:26.638Z,65.76
2019-04-30T23:11:55.762Z,65.76
2019-04-30T23:14:24.871Z,65.72
2019-04-30T23:16:53.985Z,65.64
2019-04-30T23:19:23.119Z,65.67
2019-04-30T23:21:52.505Z,65.66
2019-04-30T23:24:21.618Z,65.53
2019-04-30T23:26:50.748Z,65.59
2019-04-30T23:29:19.860Z,65.62
2019-04-30T23:31:48.984Z,65.56
2019-04-30T23:34:18.439Z,65.62
2019-04-30T23:36:47.539Z,65.59
2019-04-30T23:39:16.658Z,65.64
2019-04-30T23:41:45.794Z,65.67
2019-04-30T23:44:17.195Z,65.82
2019-04-30T23:46:47.281Z,65.83
2019-04-30T23:49:20.808Z,65.85
2019-04-30T23:52:00.171Z,65.91
2019-04-30T23:54:36.563Z,65.95
2019-04-30T23:57:13.714Z,65.88
2019-04-30T23:59:46.473Z,65.87
